A- A+ FrançaisEnglishEspañol中国

Services sur Internet Soldes sur Internet Des idées de cadeaux Météo Météo aéro

La météo à : Autours de vous Tarbes-Lourdes-PyrénéesParis-Le-Bourget Dreux-Vernouillet La-Baule-Escoublac

manche à air

La météo aéronautique pour les pilotes, la préparation du vol avec les METAR (METeorological Aerodrome Report, message d'observation des conditions météorologiques pour l'aviation) et Les TAF (Terminal Aerodrome Forecast : message de prévision à court terme des conditions météorologiques pour l'aviation). Et les autres ressources comme les VAC (Visual Approch Chart) et les NOTAM (Notice To Airman) pour préprer les vols.

Aéroport Cork (Irlande) / OACI EICK/ IATA ORK

L'altitude de l'aéroport Cork est de 153 m = 502 ft. Il est situé à proximité de Cork (Irlande). La météo générale à 5 jours est disponible pour Fort Cross Roads situé à 0.7 km.

METAR de l'aéroport Cork - EICK

EICK 291030Z 31012KT 9999 BKN014 14/12 Q1002 NOSIG

Décodage du METAR de l'aéroport Cork (IE)

METAR émis par EICK le dimanche 29 septembre 2019 à 10:30 heure TU. Attention ce METAR est obsolète car il a été émis il y a 3 heure et 29 minutes.

La visibilité est de supérieure à 10 km = supérieure à 6.2 sm.

La température est de 14°C = 57 °F et le point rosée est de 12°C = 54 °F . Ce qui correspond à 88% d'humidité relative.

Le QNH est de 1002 hPa = 29.59 inHg

Vent de 12 kt = 22 km/h, orienté à 310°.

Nuages : Couverture nuageuse fragmentée à 1400 ft = 430 mètres.

Aucun changement significatif dans les deux heures à venir

TAF de l'aéroport Cork - EICK

EICK 290500Z 2906/3006 32016KT 9999 -RA SCT007 BKN015 TEMPO 2906/2911 32018G28KT TEMPO 2906/2909 BKN007 BECMG 2918/2920 28007KT BECMG 2921/2924 VRB03KT BECMG 3004/3006 10010KT 5000 -RA BKN012

EICK 290500Z 2906/3006 32016KT 9999 faible RA nuages épars à 007 couverture nuageuse fragmentée à 015 temporairement 2906/2911 32018G28KT temporairement 2906/2909 couverture nuageuse fragmentée à 007 devenant 2918/2920 28007KT devenant 2921/2924 VRB03KT devenant 3004/3006 10010KT 5000 faible RA couverture nuageuse fragmentée à 012

Aéroport à proximité de Cork

Météo générale à 5 jours à Fort Cross Roads (0.7 km)Aéroport Rathcoole (45 km)Aéroport Bantry (71 km)Aéroport Kerry (80 km)Aéroport Coonagh (93 km)Aéroport Shannon (100 km)Aéroport Waterford (104 km)

Vue aérienne de l'aéroport Cork

NOTAM de l'aéroport Cork

Les NOTAM sont fournis sans aucune garantie de leur actualité. Le pilote est le seul responsable de la vérification de sa validité avant de l'utiliser opérationnellement pour préparer un vol ou l'utiliser lors de sa navigation.

Pas de NOTAM

Sources des données